sensor_id;sensor_type;location;lat;lon;timestamp;temperature;humidity
70421;SHT31;57848;51.938;15.520;2022-07-04T00:02:18;20.62;58.85
70421;SHT31;57848;51.938;15.520;2022-07-04T00:04:44;20.57;58.98
70421;SHT31;57848;51.938;15.520;2022-07-04T00:07:09;20.55;59.01
70421;SHT31;57848;51.938;15.520;2022-07-04T00:09:34;20.50;59.25
70421;SHT31;57848;51.938;15.520;2022-07-04T00:12:00;20.52;59.20
70421;SHT31;57848;51.938;15.520;2022-07-04T00:14:25;20.55;59.26
70421;SHT31;57848;51.938;15.520;2022-07-04T00:16:50;20.56;59.13
70421;SHT31;57848;51.938;15.520;2022-07-04T00:19:16;20.59;59.24
70421;SHT31;57848;51.938;15.520;2022-07-04T00:21:41;20.49;59.62
70421;SHT31;57848;51.938;15.520;2022-07-04T00:24:06;20.47;59.57
70421;SHT31;57848;51.938;15.520;2022-07-04T00:26:32;20.52;59.53
70421;SHT31;57848;51.938;15.520;2022-07-04T00:28:58;20.52;59.69
70421;SHT31;57848;51.938;15.520;2022-07-04T00:31:23;20.42;59.99
70421;SHT31;57848;51.938;15.520;2022-07-04T00:33:48;20.36;60.34
70421;SHT31;57848;51.938;15.520;2022-07-04T00:36:14;20.37;60.30
70421;SHT31;57848;51.938;15.520;2022-07-04T00:38:39;20.35;60.58
70421;SHT31;57848;51.938;15.520;2022-07-04T00:41:04;20.33;60.79
70421;SHT31;57848;51.938;15.520;2022-07-04T00:43:30;20.28;60.97
70421;SHT31;57848;51.938;15.520;2022-07-04T00:45:55;20.21;61.18
70421;SHT31;57848;51.938;15.520;2022-07-04T00:48:21;20.25;61.08
70421;SHT31;57848;51.938;15.520;2022-07-04T00:50:46;20.21;61.41
70421;SHT31;57848;51.938;15.520;2022-07-04T00:53:13;20.15;61.62
70421;SHT31;57848;51.938;15.520;2022-07-04T00:55:39;20.11;61.76
70421;SHT31;57848;51.938;15.520;2022-07-04T00:58:06;20.12;61.88
70421;SHT31;57848;51.938;15.520;2022-07-04T01:00:32;20.15;61.91
70421;SHT31;57848;51.938;15.520;2022-07-04T01:02:58;20.09;61.94
70421;SHT31;57848;51.938;15.520;2022-07-04T01:05:23;20.15;62.07
70421;SHT31;57848;51.938;15.520;2022-07-04T01:07:49;20.11;62.23
70421;SHT31;57848;51.938;15.520;2022-07-04T01:10:15;20.12;62.26
70421;SHT31;57848;51.938;15.520;2022-07-04T01:12:40;20.08;62.40
70421;SHT31;57848;51.938;15.520;2022-07-04T01:15:06;20.14;62.42
70421;SHT31;57848;51.938;15.520;2022-07-04T01:17:32;20.11;62.52
70421;SHT31;57848;51.938;15.520;2022-07-04T01:19:57;20.08;62.73
70421;SHT31;57848;51.938;15.520;2022-07-04T01:22:23;20.05;62.78
70421;SHT31;57848;51.938;15.520;2022-07-04T01:24:49;20.04;62.94
70421;SHT31;57848;51.938;15.520;2022-07-04T01:27:15;20.02;63.01
70421;SHT31;57848;51.938;15.520;2022-07-04T01:29:41;20.01;63.03
70421;SHT31;57848;51.938;15.520;2022-07-04T01:32:07;20.01;63.09
70421;SHT31;57848;51.938;15.520;2022-07-04T01:34:33;19.98;63.27
70421;SHT31;57848;51.938;15.520;2022-07-04T01:37:00;20.04;63.22
70421;SHT31;57848;51.938;15.520;2022-07-04T01:39:26;20.05;63.14
70421;SHT31;57848;51.938;15.520;2022-07-04T01:41:52;19.98;63.54
70421;SHT31;57848;51.938;15.520;2022-07-04T01:44:17;19.95;63.49
70421;SHT31;57848;51.938;15.520;2022-07-04T01:46:42;19.89;63.68
70421;SHT31;57848;51.938;15.520;2022-07-04T01:49:08;19.92;63.77
70421;SHT31;57848;51.938;15.520;2022-07-04T01:51:34;19.89;63.79
70421;SHT31;57848;51.938;15.520;2022-07-04T01:53:59;19.85;64.00
70421;SHT31;57848;51.938;15.520;2022-07-04T01:56:25;19.86;64.17
70421;SHT31;57848;51.938;15.520;2022-07-04T01:58:50;19.79;64.35
70421;SHT31;57848;51.938;15.520;2022-07-04T02:01:15;19.73;64.62
70421;SHT31;57848;51.938;15.520;2022-07-04T02:04:02;19.67;64.75
70421;SHT31;57848;51.938;15.520;2022-07-04T02:06:28;19.61;65.05
70421;SHT31;57848;51.938;15.520;2022-07-04T02:08:54;19.67;64.91
70421;SHT31;57848;51.938;15.520;2022-07-04T02:11:38;19.58;65.10
70421;SHT31;57848;51.938;15.520;2022-07-04T02:14:22;19.53;65.36
70421;SHT31;57848;51.938;15.520;2022-07-04T02:16:48;19.49;65.68
70421;SHT31;57848;51.938;15.520;2022-07-04T02:19:14;19.50;65.69
70421;SHT31;57848;51.938;15.520;2022-07-04T02:21:40;19.51;65.69
70421;SHT31;57848;51.938;15.520;2022-07-04T02:24:05;19.46;65.83
70421;SHT31;57848;51.938;15.520;2022-07-04T02:26:31;19.46;65.86
70421;SHT31;57848;51.938;15.520;2022-07-04T02:28:56;19.38;66.04
70421;SHT31;57848;51.938;15.520;2022-07-04T02:31:22;19.33;66.47
70421;SHT31;57848;51.938;15.520;2022-07-04T02:33:47;19.30;66.54
70421;SHT31;57848;51.938;15.520;2022-07-04T02:36:13;19.37;66.47
70421;SHT31;57848;51.938;15.520;2022-07-04T02:38:38;19.30;66.72
70421;SHT31;57848;51.938;15.520;2022-07-04T02:41:03;19.30;66.70
70421;SHT31;57848;51.938;15.520;2022-07-04T02:43:28;19.28;66.79
70421;SHT31;57848;51.938;15.520;2022-07-04T02:45:54;19.22;66.97
70421;SHT31;57848;51.938;15.520;2022-07-04T02:48:19;19.22;67.10
70421;SHT31;57848;51.938;15.520;2022-07-04T02:50:45;19.26;67.09
70421;SHT31;57848;51.938;15.520;2022-07-04T02:53:10;19.24;67.14
70421;SHT31;57848;51.938;15.520;2022-07-04T02:55:35;19.24;67.25
70421;SHT31;57848;51.938;15.520;2022-07-04T02:58:01;19.26;67.21
70421;SHT31;57848;51.938;15.520;2022-07-04T03:00:26;19.22;67.37
70421;SHT31;57848;51.938;15.520;2022-07-04T03:02:53;19.20;67.50
70421;SHT31;57848;51.938;15.520;2022-07-04T03:05:19;19.23;67.50
70421;SHT31;57848;51.938;15.520;2022-07-04T03:07:45;19.24;67.47
70421;SHT31;57848;51.938;15.520;2022-07-04T03:10:10;19.19;67.70
70421;SHT31;57848;51.938;15.520;2022-07-04T03:12:35;19.16;67.81
70421;SHT31;57848;51.938;15.520;2022-07-04T03:15:01;19.16;67.98
70421;SHT31;57848;51.938;15.520;2022-07-04T03:17:26;19.17;68.04
70421;SHT31;57848;51.938;15.520;2022-07-04T03:19:51;19.23;67.82
70421;SHT31;57848;51.938;15.520;2022-07-04T03:22:17;19.27;67.66
70421;SHT31;57848;51.938;15.520;2022-07-04T03:24:42;19.23;67.79
70421;SHT31;57848;51.938;15.520;2022-07-04T03:27:08;19.26;67.82
70421;SHT31;57848;51.938;15.520;2022-07-04T03:29:33;19.28;67.86
70421;SHT31;57848;51.938;15.520;2022-07-04T03:31:58;19.23;68.11
70421;SHT31;57848;51.938;15.520;2022-07-04T03:34:24;19.28;67.99
70421;SHT31;57848;51.938;15.520;2022-07-04T03:36:49;19.26;68.13
70421;SHT31;57848;51.938;15.520;2022-07-04T03:39:14;19.26;68.15
70421;SHT31;57848;51.938;15.520;2022-07-04T03:41:40;19.20;68.42
70421;SHT31;57848;51.938;15.520;2022-07-04T03:44:05;19.22;68.27
70421;SHT31;57848;51.938;15.520;2022-07-04T03:46:30;19.15;68.69
70421;SHT31;57848;51.938;15.520;2022-07-04T03:48:55;19.15;68.60
70421;SHT31;57848;51.938;15.520;2022-07-04T03:51:21;19.17;68.56
70421;SHT31;57848;51.938;15.520;2022-07-04T03:53:48;19.17;68.46
70421;SHT31;57848;51.938;15.520;2022-07-04T03:56:13;19.16;68.54
70421;SHT31;57848;51.938;15.520;2022-07-04T03:58:39;19.13;68.53
70421;SHT31;57848;51.938;15.520;2022-07-04T04:01:04;19.19;68.28
70421;SHT31;57848;51.938;15.520;2022-07-04T04:03:30;19.17;68.46
70421;SHT31;57848;51.938;15.520;2022-07-04T04:06:15;19.20;68.50
70421;SHT31;57848;51.938;15.520;2022-07-04T04:08:40;19.16;68.96
70421;SHT31;57848;51.938;15.520;2022-07-04T04:11:06;19.17;68.86
70421;SHT31;57848;51.938;15.520;2022-07-04T04:13:31;19.24;68.76
70421;SHT31;57848;51.938;15.520;2022-07-04T04:15:56;19.22;69.11
70421;SHT31;57848;51.938;15.520;2022-07-04T04:18:22;19.24;68.68
70421;SHT31;57848;51.938;15.520;2022-07-04T04:20:47;19.26;68.77
70421;SHT31;57848;51.938;15.520;2022-07-04T04:23:12;19.33;68.46
70421;SHT31;57848;51.938;15.520;2022-07-04T04:25:38;19.46;67.77
70421;SHT31;57848;51.938;15.520;2022-07-04T04:28:03;19.43;68.23
70421;SHT31;57848;51.938;15.520;2022-07-04T04:30:29;19.53;67.72
70421;SHT31;57848;51.938;15.520;2022-07-04T04:32:54;19.60;67.63
70421;SHT31;57848;51.938;15.520;2022-07-04T04:35:19;19.65;67.25
70421;SHT31;57848;51.938;15.520;2022-07-04T04:37:45;19.75;67.00
70421;SHT31;57848;51.938;15.520;2022-07-04T04:40:11;19.84;66.62
70421;SHT31;57848;51.938;15.520;2022-07-04T04:42:36;19.88;66.51
70421;SHT31;57848;51.938;15.520;2022-07-04T04:45:03;19.98;66.66
70421;SHT31;57848;51.938;15.520;2022-07-04T04:47:29;20.11;65.24
70421;SHT31;57848;51.938;15.520;2022-07-04T04:49:54;20.33;64.18
70421;SHT31;57848;51.938;15.520;2022-07-04T04:52:20;20.46;63.95
70421;SHT31;57848;51.938;15.520;2022-07-04T04:54:45;20.52;63.37
70421;SHT31;57848;51.938;15.520;2022-07-04T04:57:10;20.60;63.55
70421;SHT31;57848;51.938;15.520;2022-07-04T04:59:35;20.67;63.24
70421;SHT31;57848;51.938;15.520;2022-07-04T05:02:01;20.77;63.38
70421;SHT31;57848;51.938;15.520;2022-07-04T05:04:27;20.90;62.96
70421;SHT31;57848;51.938;15.520;2022-07-04T05:06:52;20.88;63.27
70421;SHT31;57848;51.938;15.520;2022-07-04T05:09:17;21.00;63.12
70421;SHT31;57848;51.938;15.520;2022-07-04T05:11:44;21.10;63.19
70421;SHT31;57848;51.938;15.520;2022-07-04T05:14:10;21.14;63.03
70421;SHT31;57848;51.938;15.520;2022-07-04T05:16:35;21.28;62.69
70421;SHT31;57848;51.938;15.520;2022-07-04T05:19:01;21.28;63.09
70421;SHT31;57848;51.938;15.520;2022-07-04T05:21:26;21.37;62.94
70421;SHT31;57848;51.938;15.520;2022-07-04T05:23:53;21.44;62.35
70421;SHT31;57848;51.938;15.520;2022-07-04T05:26:19;21.56;62.11
70421;SHT31;57848;51.938;15.520;2022-07-04T05:28:44;21.67;62.04
70421;SHT31;57848;51.938;15.520;2022-07-04T05:31:09;21.82;61.37
70421;SHT31;57848;51.938;15.520;2022-07-04T05:33:35;21.94;61.01
70421;SHT31;57848;51.938;15.520;2022-07-04T05:36:00;21.99;61.13
70421;SHT31;57848;51.938;15.520;2022-07-04T05:38:25;22.12;60.53
70421;SHT31;57848;51.938;15.520;2022-07-04T05:40:51;22.02;60.40
70421;SHT31;57848;51.938;15.520;2022-07-04T05:43:16;21.92;60.71
70421;SHT31;57848;51.938;15.520;2022-07-04T05:45:41;21.83;61.42
70421;SHT31;57848;51.938;15.520;2022-07-04T05:48:07;21.83;61.68
70421;SHT31;57848;51.938;15.520;2022-07-04T05:50:33;21.89;60.85
70421;SHT31;57848;51.938;15.520;2022-07-04T05:53:00;21.83;61.08
70421;SHT31;57848;51.938;15.520;2022-07-04T05:55:25;21.99;60.21
70421;SHT31;57848;51.938;15.520;2022-07-04T05:57:51;21.93;60.86
70421;SHT31;57848;51.938;15.520;2022-07-04T06:00:16;22.04;60.65
70421;SHT31;57848;51.938;15.520;2022-07-04T06:02:41;22.07;60.50
70421;SHT31;57848;51.938;15.520;2022-07-04T06:05:07;22.00;60.74
70421;SHT31;57848;51.938;15.520;2022-07-04T06:07:33;22.03;60.67
70421;SHT31;57848;51.938;15.520;2022-07-04T06:09:58;21.97;60.37
70421;SHT31;57848;51.938;15.520;2022-07-04T06:12:24;21.93;60.52
70421;SHT31;57848;51.938;15.520;2022-07-04T06:14:49;21.86;60.73
70421;SHT31;57848;51.938;15.520;2022-07-04T06:17:14;21.83;60.97
70421;SHT31;57848;51.938;15.520;2022-07-04T06:19:40;21.86;60.83
70421;SHT31;57848;51.938;15.520;2022-07-04T06:22:05;21.81;60.91
70421;SHT31;57848;51.938;15.520;2022-07-04T06:24:30;21.75;61.54
70421;SHT31;57848;51.938;15.520;2022-07-04T06:26:56;21.69;61.30
70421;SHT31;57848;51.938;15.520;2022-07-04T06:29:21;21.73;61.48
70421;SHT31;57848;51.938;15.520;2022-07-04T06:31:46;21.81;61.32
70421;SHT31;57848;51.938;15.520;2022-07-04T06:34:12;21.83;61.35
70421;SHT31;57848;51.938;15.520;2022-07-04T06:36:56;21.83;61.64
70421;SHT31;57848;51.938;15.520;2022-07-04T06:39:21;21.93;61.21
70421;SHT31;57848;51.938;15.520;2022-07-04T06:41:46;21.94;61.24
70421;SHT31;57848;51.938;15.520;2022-07-04T06:44:12;22.02;60.63
70421;SHT31;57848;51.938;15.520;2022-07-04T06:46:37;21.97;60.88
70421;SHT31;57848;51.938;15.520;2022-07-04T06:49:02;22.07;60.93
70421;SHT31;57848;51.938;15.520;2022-07-04T06:51:28;22.13;60.10
70421;SHT31;57848;51.938;15.520;2022-07-04T06:53:53;22.20;60.01
70421;SHT31;57848;51.938;15.520;2022-07-04T06:56:18;22.18;59.92
70421;SHT31;57848;51.938;15.520;2022-07-04T06:58:44;22.13;60.41
70421;SHT31;57848;51.938;15.520;2022-07-04T07:01:09;22.20;60.37
70421;SHT31;57848;51.938;15.520;2022-07-04T07:03:35;22.21;60.54
70421;SHT31;57848;51.938;15.520;2022-07-04T07:06:01;22.24;60.56
70421;SHT31;57848;51.938;15.520;2022-07-04T07:08:28;22.34;60.79
70421;SHT31;57848;51.938;15.520;2022-07-04T07:10:55;22.47;58.80
70421;SHT31;57848;51.938;15.520;2022-07-04T07:13:20;22.52;58.82
70421;SHT31;57848;51.938;15.520;2022-07-04T07:15:46;22.62;58.95
70421;SHT31;57848;51.938;15.520;2022-07-04T07:18:11;22.69;59.14
70421;SHT31;57848;51.938;15.520;2022-07-04T07:20:37;22.74;58.85
70421;SHT31;57848;51.938;15.520;2022-07-04T07:23:03;22.81;58.00
70421;SHT31;57848;51.938;15.520;2022-07-04T07:25:30;22.90;58.32
70421;SHT31;57848;51.938;15.520;2022-07-04T07:27:56;23.03;58.33
70421;SHT31;57848;51.938;15.520;2022-07-04T07:30:21;23.20;58.03
70421;SHT31;57848;51.938;15.520;2022-07-04T07:32:46;23.42;56.98
70421;SHT31;57848;51.938;15.520;2022-07-04T07:35:12;23.36;57.28
70421;SHT31;57848;51.938;15.520;2022-07-04T07:37:37;23.42;57.21
70421;SHT31;57848;51.938;15.520;2022-07-04T07:40:02;23.36;57.26
70421;SHT31;57848;51.938;15.520;2022-07-04T07:42:28;23.42;57.11
70421;SHT31;57848;51.938;15.520;2022-07-04T07:44:53;23.51;57.05
70421;SHT31;57848;51.938;15.520;2022-07-04T07:47:19;23.49;56.87
70421;SHT31;57848;51.938;15.520;2022-07-04T07:49:44;23.49;57.12
70421;SHT31;57848;51.938;15.520;2022-07-04T07:52:12;23.51;58.05
70421;SHT31;57848;51.938;15.520;2022-07-04T07:54:38;23.43;57.75
70421;SHT31;57848;51.938;15.520;2022-07-04T07:57:03;23.32;58.21
70421;SHT31;57848;51.938;15.520;2022-07-04T07:59:29;23.24;58.78
70421;SHT31;57848;51.938;15.520;2022-07-04T08:01:54;23.33;58.74
70421;SHT31;57848;51.938;15.520;2022-07-04T08:04:19;23.34;58.42
70421;SHT31;57848;51.938;15.520;2022-07-04T08:07:09;23.29;58.38
70421;SHT31;57848;51.938;15.520;2022-07-04T08:09:35;23.34;58.37
70421;SHT31;57848;51.938;15.520;2022-07-04T08:12:03;23.39;59.00
70421;SHT31;57848;51.938;15.520;2022-07-04T08:14:28;23.45;58.58
70421;SHT31;57848;51.938;15.520;2022-07-04T08:16:54;23.50;58.38
70421;SHT31;57848;51.938;15.520;2022-07-04T08:19:20;23.50;58.22
70421;SHT31;57848;51.938;15.520;2022-07-04T08:21:45;23.54;57.82
70421;SHT31;57848;51.938;15.520;2022-07-04T08:24:14;23.57;57.64
70421;SHT31;57848;51.938;15.520;2022-07-04T08:26:40;23.56;57.98
70421;SHT31;57848;51.938;15.520;2022-07-04T08:29:06;23.57;57.74
70421;SHT31;57848;51.938;15.520;2022-07-04T08:31:31;23.63;57.99
70421;SHT31;57848;51.938;15.520;2022-07-04T08:33:57;23.70;57.51
70421;SHT31;57848;51.938;15.520;2022-07-04T08:36:22;23.71;56.67
70421;SHT31;57848;51.938;15.520;2022-07-04T08:38:47;23.81;56.88
70421;SHT31;57848;51.938;15.520;2022-07-04T08:41:15;23.82;56.43
70421;SHT31;57848;51.938;15.520;2022-07-04T08:43:41;23.84;57.45
70421;SHT31;57848;51.938;15.520;2022-07-04T08:46:07;23.97;55.73
70421;SHT31;57848;51.938;15.520;2022-07-04T08:48:37;23.98;54.39
70421;SHT31;57848;51.938;15.520;2022-07-04T08:51:16;24.01;55.72
70421;SHT31;57848;51.938;15.520;2022-07-04T08:53:50;24.14;55.55
70421;SHT31;57848;51.938;15.520;2022-07-04T08:56:19;24.21;55.36
70421;SHT31;57848;51.938;15.520;2022-07-04T08:59:03;24.18;55.30
70421;SHT31;57848;51.938;15.520;2022-07-04T09:01:30;24.21;54.94
70421;SHT31;57848;51.938;15.520;2022-07-04T09:03:56;24.31;54.87
70421;SHT31;57848;51.938;15.520;2022-07-04T09:06:21;24.43;54.63
70421;SHT31;57848;51.938;15.520;2022-07-04T09:08:48;24.59;52.95
70421;SHT31;57848;51.938;15.520;2022-07-04T09:11:14;24.59;51.19
70421;SHT31;57848;51.938;15.520;2022-07-04T09:13:40;24.55;52.66
70421;SHT31;57848;51.938;15.520;2022-07-04T09:16:05;24.55;53.78
70421;SHT31;57848;51.938;15.520;2022-07-04T09:18:35;24.65;53.15
70421;SHT31;57848;51.938;15.520;2022-07-04T09:21:04;24.80;51.03
70421;SHT31;57848;51.938;15.520;2022-07-04T09:23:32;24.82;50.36
70421;SHT31;57848;51.938;15.520;2022-07-04T09:26:20;24.83;50.29
70421;SHT31;57848;51.938;15.520;2022-07-04T09:28:56;24.94;50.64
70421;SHT31;57848;51.938;15.520;2022-07-04T09:31:24;24.94;51.18
70421;SHT31;57848;51.938;15.520;2022-07-04T09:33:55;25.03;51.24
70421;SHT31;57848;51.938;15.520;2022-07-04T09:36:23;25.13;50.84
70421;SHT31;57848;51.938;15.520;2022-07-04T09:39:14;25.16;50.19
70421;SHT31;57848;51.938;15.520;2022-07-04T09:41:57;25.24;49.67
70421;SHT31;57848;51.938;15.520;2022-07-04T09:44:28;25.40;50.37
70421;SHT31;57848;51.938;15.520;2022-07-04T09:46:54;25.55;50.91
70421;SHT31;57848;51.938;15.520;2022-07-04T09:49:20;25.65;48.70
70421;SHT31;57848;51.938;15.520;2022-07-04T09:51:51;25.77;48.19
70421;SHT31;57848;51.938;15.520;2022-07-04T09:54:27;25.89;48.57
70421;SHT31;57848;51.938;15.520;2022-07-04T09:56:58;26.06;48.12
70421;SHT31;57848;51.938;15.520;2022-07-04T09:59:25;26.10;48.60
70421;SHT31;57848;51.938;15.520;2022-07-04T10:02:06;26.19;48.61
70421;SHT31;57848;51.938;15.520;2022-07-04T10:04:49;26.41;49.67
70421;SHT31;57848;51.938;15.520;2022-07-04T10:07:50;26.47;47.95
70421;SHT31;57848;51.938;15.520;2022-07-04T10:12:52;26.74;47.09
70421;SHT31;57848;51.938;15.520;2022-07-04T10:15:18;26.61;46.53
70421;SHT31;57848;51.938;15.520;2022-07-04T10:17:44;26.70;46.34
70421;SHT31;57848;51.938;15.520;2022-07-04T10:20:11;26.99;46.49
70421;SHT31;57848;51.938;15.520;2022-07-04T10:22:37;27.26;46.22
70421;SHT31;57848;51.938;15.520;2022-07-04T10:25:04;27.35;45.68
70421;SHT31;57848;51.938;15.520;2022-07-04T10:27:30;27.34;45.43
70421;SHT31;57848;51.938;15.520;2022-07-04T10:29:56;27.31;46.27
70421;SHT31;57848;51.938;15.520;2022-07-04T10:32:22;27.49;46.12
70421;SHT31;57848;51.938;15.520;2022-07-04T10:34:47;27.43;44.98
70421;SHT31;57848;51.938;15.520;2022-07-04T10:37:13;27.90;44.95
70421;SHT31;57848;51.938;15.520;2022-07-04T10:39:38;29.23;41.83
70421;SHT31;57848;51.938;15.520;2022-07-04T10:42:05;30.12;39.03
70421;SHT31;57848;51.938;15.520;2022-07-04T10:44:32;30.52;38.48
70421;SHT31;57848;51.938;15.520;2022-07-04T10:47:03;31.78;36.32
70421;SHT31;57848;51.938;15.520;2022-07-04T10:49:30;32.67;35.18
70421;SHT31;57848;51.938;15.520;2022-07-04T10:52:11;34.08;32.88
70421;SHT31;57848;51.938;15.520;2022-07-04T10:54:38;33.28;33.19
70421;SHT31;57848;51.938;15.520;2022-07-04T10:57:21;33.89;32.33
70421;SHT31;57848;51.938;15.520;2022-07-04T11:02:23;31.82;35.55
70421;SHT31;57848;51.938;15.520;2022-07-04T11:04:59;30.84;36.60
70421;SHT31;57848;51.938;15.520;2022-07-04T11:17:57;29.42;39.79
70421;SHT31;57848;51.938;15.520;2022-07-04T11:20:23;29.97;39.46
70421;SHT31;57848;51.938;15.520;2022-07-04T11:22:49;29.24;40.08
70421;SHT31;57848;51.938;15.520;2022-07-04T11:25:15;29.14;40.91
70421;SHT31;57848;51.938;15.520;2022-07-04T11:27:41;29.47;40.29
70421;SHT31;57848;51.938;15.520;2022-07-04T11:30:07;29.40;40.49
70421;SHT31;57848;51.938;15.520;2022-07-04T11:32:35;29.46;39.91
70421;SHT31;57848;51.938;15.520;2022-07-04T11:35:01;30.63;38.35
70421;SHT31;57848;51.938;15.520;2022-07-04T11:37:26;32.02;36.07
70421;SHT31;57848;51.938;15.520;2022-07-04T11:39:53;32.43;35.46
70421;SHT31;57848;51.938;15.520;2022-07-04T11:42:39;32.77;34.39
70421;SHT31;57848;51.938;15.520;2022-07-04T11:45:23;33.32;33.70
70421;SHT31;57848;51.938;15.520;2022-07-04T11:47:49;34.93;31.29
70421;SHT31;57848;51.938;15.520;2022-07-04T11:50:16;35.63;30.28
70421;SHT31;57848;51.938;15.520;2022-07-04T11:52:46;36.32;29.53
70421;SHT31;57848;51.938;15.520;2022-07-04T11:55:15;35.29;30.56
70421;SHT31;57848;51.938;15.520;2022-07-04T11:57:43;33.66;32.74
70421;SHT31;57848;51.938;15.520;2022-07-04T12:00:11;32.37;34.48
70421;SHT31;57848;51.938;15.520;2022-07-04T12:02:37;32.29;34.40
70421;SHT31;57848;51.938;15.520;2022-07-04T12:05:05;33.87;32.64
70421;SHT31;57848;51.938;15.520;2022-07-04T12:07:33;34.31;31.40
70421;SHT31;57848;51.938;15.520;2022-07-04T12:10:08;35.64;29.94
70421;SHT31;57848;51.938;15.520;2022-07-04T12:12:34;36.49;28.75
70421;SHT31;57848;51.938;15.520;2022-07-04T12:15:06;36.86;27.87
70421;SHT31;57848;51.938;15.520;2022-07-04T12:17:34;36.28;29.02
70421;SHT31;57848;51.938;15.520;2022-07-04T12:20:03;34.69;30.42
70421;SHT31;57848;51.938;15.520;2022-07-04T12:22:37;34.95;30.36
70421;SHT31;57848;51.938;15.520;2022-07-04T12:25:05;34.42;31.50
70421;SHT31;57848;51.938;15.520;2022-07-04T12:27:31;34.51;31.59
70421;SHT31;57848;51.938;15.520;2022-07-04T12:29:57;34.21;31.82
70421;SHT31;57848;51.938;15.520;2022-07-04T12:32:23;34.24;32.04
70421;SHT31;57848;51.938;15.520;2022-07-04T12:34:49;33.62;32.86
70421;SHT31;57848;51.938;15.520;2022-07-04T12:37:15;32.94;33.69
70421;SHT31;57848;51.938;15.520;2022-07-04T12:39:43;32.56;33.74
70421;SHT31;57848;51.938;15.520;2022-07-04T12:42:17;31.83;34.67
70421;SHT31;57848;51.938;15.520;2022-07-04T12:44:44;31.34;36.30
70421;SHT31;57848;51.938;15.520;2022-07-04T12:47:11;30.80;36.53
70421;SHT31;57848;51.938;15.520;2022-07-04T12:49:42;30.98;36.94
70421;SHT31;57848;51.938;15.520;2022-07-04T12:52:10;32.19;35.05
70421;SHT31;57848;51.938;15.520;2022-07-04T12:54:36;33.01;33.60
70421;SHT31;57848;51.938;15.520;2022-07-04T12:57:14;32.79;33.93
70421;SHT31;57848;51.938;15.520;2022-07-04T12:59:41;31.99;35.00
70421;SHT31;57848;51.938;15.520;2022-07-04T13:02:08;31.21;35.98
70421;SHT31;57848;51.938;15.520;2022-07-04T13:04:33;32.41;34.71
70421;SHT31;57848;51.938;15.520;2022-07-04T13:07:00;32.78;34.23
70421;SHT31;57848;51.938;15.520;2022-07-04T13:09:36;32.37;34.56
70421;SHT31;57848;51.938;15.520;2022-07-04T13:12:01;31.89;34.77
70421;SHT31;57848;51.938;15.520;2022-07-04T13:14:45;31.10;36.01
70421;SHT31;57848;51.938;15.520;2022-07-04T13:17:10;30.70;36.32
70421;SHT31;57848;51.938;15.520;2022-07-04T13:19:36;31.52;35.49
70421;SHT31;57848;51.938;15.520;2022-07-04T13:22:01;31.46;35.88
70421;SHT31;57848;51.938;15.520;2022-07-04T13:24:26;31.63;36.27
70421;SHT31;57848;51.938;15.520;2022-07-04T13:26:52;31.06;36.77
70421;SHT31;57848;51.938;15.520;2022-07-04T13:29:17;31.97;35.78
70421;SHT31;57848;51.938;15.520;2022-07-04T13:31:42;31.78;35.63
70421;SHT31;57848;51.938;15.520;2022-07-04T13:34:08;31.59;35.60
70421;SHT31;57848;51.938;15.520;2022-07-04T13:36:33;32.79;33.97
70421;SHT31;57848;51.938;15.520;2022-07-04T13:38:58;33.36;33.52
70421;SHT31;57848;51.938;15.520;2022-07-04T13:41:24;33.50;32.65
70421;SHT31;57848;51.938;15.520;2022-07-04T13:43:49;34.27;31.95
70421;SHT31;57848;51.938;15.520;2022-07-04T13:46:15;35.19;30.77
70421;SHT31;57848;51.938;15.520;2022-07-04T13:48:40;35.74;29.95
70421;SHT31;57848;51.938;15.520;2022-07-04T13:51:05;35.58;29.12
70421;SHT31;57848;51.938;15.520;2022-07-04T13:53:31;35.65;29.39
70421;SHT31;57848;51.938;15.520;2022-07-04T13:55:58;35.29;29.52
70421;SHT31;57848;51.938;15.520;2022-07-04T13:58:23;35.03;29.85
70421;SHT31;57848;51.938;15.520;2022-07-04T14:00:49;35.02;29.41
70421;SHT31;57848;51.938;15.520;2022-07-04T14:03:14;34.34;29.63
70421;SHT31;57848;51.938;15.520;2022-07-04T14:05:41;34.59;29.29
70421;SHT31;57848;51.938;15.520;2022-07-04T14:08:07;33.62;30.49
70421;SHT31;57848;51.938;15.520;2022-07-04T14:10:32;32.92;31.23
70421;SHT31;57848;51.938;15.520;2022-07-04T14:12:57;32.37;32.15
70421;SHT31;57848;51.938;15.520;2022-07-04T14:15:23;31.46;33.91
70421;SHT31;57848;51.938;15.520;2022-07-04T14:17:48;31.15;34.44
70421;SHT31;57848;51.938;15.520;2022-07-04T14:20:13;30.91;35.29
70421;SHT31;57848;51.938;15.520;2022-07-04T14:22:39;30.55;35.33
70421;SHT31;57848;51.938;15.520;2022-07-04T14:25:06;30.33;36.09
70421;SHT31;57848;51.938;15.520;2022-07-04T14:27:32;30.08;36.43
70421;SHT31;57848;51.938;15.520;2022-07-04T14:29:58;29.75;36.48
70421;SHT31;57848;51.938;15.520;2022-07-04T14:32:24;29.44;37.58
70421;SHT31;57848;51.938;15.520;2022-07-04T14:34:49;29.30;38.22
70421;SHT31;57848;51.938;15.520;2022-07-04T14:37:14;29.12;38.00
70421;SHT31;57848;51.938;15.520;2022-07-04T14:39:40;28.99;37.86
70421;SHT31;57848;51.938;15.520;2022-07-04T14:42:05;28.58;38.50
70421;SHT31;57848;51.938;15.520;2022-07-04T14:44:31;28.52;38.96
70421;SHT31;57848;51.938;15.520;2022-07-04T14:47:00;28.25;39.57
70421;SHT31;57848;51.938;15.520;2022-07-04T14:49:26;28.21;39.72
70421;SHT31;57848;51.938;15.520;2022-07-04T14:51:51;28.07;39.71
70421;SHT31;57848;51.938;15.520;2022-07-04T14:54:17;28.10;38.80
70421;SHT31;57848;51.938;15.520;2022-07-04T14:56:43;28.21;39.23
70421;SHT31;57848;51.938;15.520;2022-07-04T14:59:08;28.21;38.78
70421;SHT31;57848;51.938;15.520;2022-07-04T15:01:33;28.40;39.27
70421;SHT31;57848;51.938;15.520;2022-07-04T15:03:59;28.75;38.54
70421;SHT31;57848;51.938;15.520;2022-07-04T15:06:24;28.92;38.37
70421;SHT31;57848;51.938;15.520;2022-07-04T15:08:50;29.19;37.64
70421;SHT31;57848;51.938;15.520;2022-07-04T15:11:16;28.88;37.80
70421;SHT31;57848;51.938;15.520;2022-07-04T15:13:41;28.62;37.46
70421;SHT31;57848;51.938;15.520;2022-07-04T15:16:06;28.74;37.82
70421;SHT31;57848;51.938;15.520;2022-07-04T15:18:33;28.78;37.72
70421;SHT31;57848;51.938;15.520;2022-07-04T15:20:59;28.54;37.26
70421;SHT31;57848;51.938;15.520;2022-07-04T15:23:43;28.27;37.43
70421;SHT31;57848;51.938;15.520;2022-07-04T15:26:27;28.37;37.83
70421;SHT31;57848;51.938;15.520;2022-07-04T15:28:52;28.33;37.22
70421;SHT31;57848;51.938;15.520;2022-07-04T15:31:18;28.34;37.55